createdAt,value
2022-09-10T00:00:41.675Z,93224.19
2022-09-10T00:03:45.361Z,93194.50
2022-09-10T00:06:49.118Z,93203.25
2022-09-10T00:09:52.736Z,93231.56
2022-09-10T00:12:56.945Z,93236.91
2022-09-10T00:16:03.881Z,93214.53
2022-09-10T00:19:08.769Z,93236.69
2022-09-10T00:22:13.700Z,93231.31
2022-09-10T00:25:16.986Z,93232.59
2022-09-10T00:28:24.723Z,93229.78
2022-09-10T00:31:30.408Z,93235.69
2022-09-10T00:34:34.905Z,93230.13
2022-09-10T00:37:38.196Z,93235.47
2022-09-10T00:40:42.542Z,93227.88
2022-09-10T00:43:50.783Z,93235.78
2022-09-10T00:46:56.764Z,93239.09
2022-09-10T00:50:03.837Z,93248.50
2022-09-10T00:53:14.087Z,93247.09
2022-09-10T00:56:18.107Z,93253.06
2022-09-10T00:59:24.210Z,93275.16
2022-09-10T01:02:28.637Z,93296.19
2022-09-10T01:05:34.548Z,93306.13
2022-09-10T01:08:38.376Z,93324.94
2022-09-10T01:12:04.640Z,93323.78
2022-09-10T01:15:36.387Z,93320.66
2022-09-10T01:19:01.081Z,93325.31
2022-09-10T01:22:24.572Z,93324.22
2022-09-10T01:25:46.135Z,93330.00
2022-09-10T01:29:03.295Z,93332.78
2022-09-10T01:32:19.364Z,93320.84
2022-09-10T01:35:42.035Z,93319.88
2022-09-10T01:38:47.767Z,93313.88
2022-09-10T01:41:55.053Z,93298.13
2022-09-10T01:45:02.844Z,93297.94
2022-09-10T01:48:26.475Z,93301.41
2022-09-10T01:52:07.694Z,93319.38
2022-09-10T01:55:30.621Z,93325.91
2022-09-10T01:58:44.736Z,93320.94
2022-09-10T02:02:17.639Z,93307.34
2022-09-10T02:05:24.978Z,93320.34
2022-09-10T02:08:38.116Z,93324.50
2022-09-10T02:11:52.796Z,93325.22
2022-09-10T02:15:14.955Z,93325.50
2022-09-10T02:18:35.375Z,93316.13
2022-09-10T02:21:40.013Z,93323.28
2022-09-10T02:24:45.247Z,93318.25
2022-09-10T02:27:49.511Z,93318.75
2022-09-10T02:30:53.353Z,93326.13
2022-09-10T02:33:57.275Z,93324.94
2022-09-10T02:37:05.188Z,93321.09
2022-09-10T02:40:12.060Z,93325.13
2022-09-10T02:43:18.143Z,93324.16
2022-09-10T02:46:22.123Z,93317.63
2022-09-10T02:49:26.682Z,93312.91
2022-09-10T02:52:31.504Z,93313.28
2022-09-10T02:55:36.407Z,93309.38
2022-09-10T02:58:42.315Z,93297.97
2022-09-10T03:01:46.480Z,93308.63
2022-09-10T03:04:50.316Z,93308.41
2022-09-10T03:07:56.601Z,93305.88
2022-09-10T03:11:00.488Z,93307.53
2022-09-10T03:14:04.932Z,93307.22
2022-09-10T03:17:09.182Z,93312.50
2022-09-10T03:20:13.226Z,93309.56
2022-09-10T03:23:17.528Z,93310.94
2022-09-10T03:26:26.192Z,93308.44
2022-09-10T03:29:30.802Z,93310.25
2022-09-10T03:32:36.040Z,93321.38
2022-09-10T03:35:40.942Z,93318.38
2022-09-10T03:38:44.322Z,93315.66
2022-09-10T03:41:48.580Z,93310.88
2022-09-10T03:44:52.868Z,93319.00
2022-09-10T03:47:56.557Z,93322.16
2022-09-10T03:51:00.883Z,93321.69
2022-09-10T03:54:06.675Z,93307.25
2022-09-10T03:57:10.485Z,93298.16
2022-09-10T04:00:14.031Z,93313.78
2022-09-10T04:03:21.394Z,93304.13
2022-09-10T04:06:25.326Z,93299.31
2022-09-10T04:09:28.809Z,93304.84
2022-09-10T04:12:33.712Z,93305.91
2022-09-10T04:15:40.772Z,93313.00
2022-09-10T04:18:44.196Z,93309.91
2022-09-10T04:21:53.857Z,93307.53
2022-09-10T04:24:57.106Z,93315.88
2022-09-10T04:28:02.773Z,93312.97
2022-09-10T04:31:08.130Z,93300.22
2022-09-10T04:34:11.869Z,93321.22
2022-09-10T04:37:19.253Z,93297.66
2022-09-10T04:40:23.778Z,93314.25
2022-09-10T04:43:28.569Z,93303.94
2022-09-10T04:46:31.773Z,93320.63
2022-09-10T04:49:37.081Z,93305.78
2022-09-10T04:52:46.089Z,93295.34
2022-09-10T04:55:50.495Z,93307.94
2022-09-10T04:58:53.978Z,93318.66
2022-09-10T05:01:57.685Z,93318.09
2022-09-10T05:05:01.733Z,93318.34
2022-09-10T05:08:07.998Z,93323.59
2022-09-10T05:11:12.047Z,93322.75
2022-09-10T05:14:16.023Z,93326.31
2022-09-10T05:17:20.617Z,93329.41
2022-09-10T05:20:24.662Z,93322.53
2022-09-10T05:23:29.699Z,93324.91
2022-09-10T05:26:36.241Z,93324.91
2022-09-10T05:29:39.279Z,93329.78
2022-09-10T05:32:43.539Z,93329.44
2022-09-10T05:35:52.107Z,93330.00
2022-09-10T05:39:00.323Z,93337.41
2022-09-10T05:42:07.492Z,93329.84
2022-09-10T05:45:13.762Z,93336.81
2022-09-10T05:48:19.582Z,93343.16
2022-09-10T05:51:28.753Z,93344.16
2022-09-10T05:54:37.267Z,93345.25
2022-09-10T05:57:41.130Z,93345.13
2022-09-10T06:00:51.678Z,93339.28
2022-09-10T06:03:57.179Z,93344.44
2022-09-10T06:07:02.391Z,93343.38
2022-09-10T06:10:06.664Z,93348.78
2022-09-10T06:13:16.552Z,93348.25
2022-09-10T06:16:20.473Z,93355.53
2022-09-10T06:19:24.474Z,93363.19
2022-09-10T06:22:28.641Z,93363.31
2022-09-10T06:25:32.477Z,93369.41
2022-09-10T06:28:36.469Z,93364.56
2022-09-10T06:31:42.078Z,93355.88
2022-09-10T06:34:45.424Z,93369.94
2022-09-10T06:37:49.636Z,93380.63
2022-09-10T06:41:00.948Z,93380.06
2022-09-10T06:44:12.120Z,93390.81
2022-09-10T06:50:54.021Z,93392.22
2022-09-10T06:54:03.322Z,93396.50
2022-09-10T06:57:08.618Z,93393.38
2022-09-10T07:00:12.850Z,93388.75
2022-09-10T07:03:20.275Z,93390.75
2022-09-10T07:06:25.472Z,93407.28
2022-09-10T07:09:34.949Z,93397.00
2022-09-10T07:12:39.351Z,93403.06
2022-09-10T07:15:47.382Z,93396.47
2022-09-10T07:18:55.107Z,93403.53
2022-09-10T07:22:04.302Z,93403.88
2022-09-10T07:25:10.461Z,93403.72
2022-09-10T07:28:35.055Z,93390.97
2022-09-10T07:34:48.104Z,93411.34
2022-09-10T07:37:52.431Z,93422.28
2022-09-10T07:41:01.093Z,93422.25
2022-09-10T07:44:04.969Z,93428.47
2022-09-10T07:47:14.418Z,93427.00
2022-09-10T07:50:20.151Z,93416.13
2022-09-10T07:53:27.158Z,93430.03
2022-09-10T07:56:32.466Z,93434.59
2022-09-10T07:59:37.654Z,93446.06
2022-09-10T08:02:45.652Z,93434.22
2022-09-10T08:05:53.910Z,93430.44
2022-09-10T08:08:58.049Z,93433.63
2022-09-10T08:12:01.574Z,93428.38
2022-09-10T08:15:08.230Z,93427.91
2022-09-10T08:18:14.270Z,93430.16
2022-09-10T08:21:18.797Z,93431.94
2022-09-10T08:24:24.012Z,93438.59
2022-09-10T08:27:27.676Z,93427.94
2022-09-10T08:30:32.676Z,93425.13
2022-09-10T08:33:41.447Z,93424.63
2022-09-10T08:36:44.646Z,93417.44
2022-09-10T08:39:48.172Z,93423.72
2022-09-10T08:42:53.829Z,93421.78
2022-09-10T08:46:03.219Z,93420.41
2022-09-10T08:49:15.508Z,93428.34
2022-09-10T08:52:30.756Z,93439.53
2022-09-10T08:55:38.499Z,93426.97
2022-09-10T08:59:03.543Z,93413.50
2022-09-10T09:02:44.694Z,93387.84
2022-09-10T09:06:28.270Z,93406.38
2022-09-10T09:09:33.228Z,93422.53
2022-09-10T09:13:13.964Z,93415.91
2022-09-10T09:16:53.907Z,93443.09
2022-09-10T09:20:16.214Z,93469.06
2022-09-10T09:23:30.592Z,93469.78
2022-09-10T09:26:37.911Z,93469.66
2022-09-10T09:29:57.300Z,93487.31
2022-09-10T09:33:27.228Z,93496.88
2022-09-10T09:36:38.349Z,93495.94
2022-09-10T09:39:42.545Z,93491.63
2022-09-10T09:42:53.655Z,93497.16
2022-09-10T09:46:00.062Z,93479.75
2022-09-10T09:49:16.674Z,93485.84
2022-09-10T09:52:27.520Z,93503.59
2022-09-10T09:55:42.371Z,93507.72
2022-09-10T09:58:50.086Z,93511.88
2022-09-10T10:01:55.298Z,93516.03
2022-09-10T10:05:08.026Z,93512.66
2022-09-10T10:08:31.415Z,93515.34
2022-09-10T10:11:49.474Z,93508.59
2022-09-10T10:14:53.163Z,93508.06
2022-09-10T10:17:57.239Z,93506.09
2022-09-10T10:21:15.981Z,93514.13
2022-09-10T10:24:35.026Z,93528.31
2022-09-10T10:27:45.903Z,93533.81
2022-09-10T10:30:55.426Z,93532.53
2022-09-10T10:34:10.788Z,93536.69
2022-09-10T10:37:34.831Z,93527.28
2022-09-10T10:40:49.158Z,93525.34
2022-09-10T10:44:46.883Z,93533.50
2022-09-10T10:48:17.925Z,93541.59
2022-09-10T10:51:39.246Z,93528.75
2022-09-10T10:54:59.588Z,93534.97
2022-09-10T10:58:26.434Z,93558.03
2022-09-10T11:01:35.647Z,93553.97
2022-09-10T11:04:42.274Z,93554.69
2022-09-10T11:07:47.206Z,93558.75
2022-09-10T11:10:57.152Z,93558.09
2022-09-10T11:14:36.731Z,93564.19
2022-09-10T11:17:49.773Z,93568.22
2022-09-10T11:21:30.474Z,93562.19
2022-09-10T11:24:55.419Z,93566.25
2022-09-10T11:28:11.467Z,93577.75
2022-09-10T11:31:44.346Z,93580.47
2022-09-10T11:35:17.663Z,93584.53
2022-09-10T11:38:33.512Z,93583.19
2022-09-10T11:41:42.618Z,93577.81
2022-09-10T11:45:00.471Z,93575.81
2022-09-10T11:48:38.409Z,93578.50
2022-09-10T11:51:42.666Z,93571.78
2022-09-10T11:54:49.598Z,93581.22
2022-09-10T11:58:03.063Z,93580.56
2022-09-10T12:01:20.885Z,93589.31
2022-09-10T12:04:59.578Z,93589.34
2022-09-10T12:08:18.145Z,93592.06
2022-09-10T12:11:22.166Z,93594.13
2022-09-10T12:14:25.760Z,93593.44
2022-09-10T12:17:37.375Z,93585.34
2022-09-10T12:20:54.627Z,93594.78
2022-09-10T12:23:59.574Z,93606.91
2022-09-10T12:27:05.748Z,93601.53
2022-09-10T12:30:31.928Z,93606.25
2022-09-10T12:33:45.798Z,93609.63
2022-09-10T12:36:49.870Z,93608.97
2022-09-10T12:40:33.121Z,93613.00
2022-09-10T12:43:42.907Z,93617.72
2022-09-10T12:46:46.410Z,93618.41
2022-09-10T12:49:58.071Z,93619.75
2022-09-10T12:53:26.239Z,93618.41
2022-09-10T12:57:09.075Z,93617.75
2022-09-10T13:00:18.476Z,93618.41
2022-09-10T13:03:25.175Z,93617.06
2022-09-10T13:06:43.223Z,93624.47
2022-09-10T13:09:57.374Z,93621.81
2022-09-10T13:13:08.093Z,93627.19
2022-09-10T13:16:20.003Z,93625.19
2022-09-10T13:19:22.963Z,93615.06
2022-09-10T13:22:53.391Z,93625.84
2022-09-10T13:26:32.251Z,93623.81
2022-09-10T13:29:41.216Z,93629.22
2022-09-10T13:32:52.695Z,93624.50
2022-09-10T13:36:06.490Z,93631.22
2022-09-10T13:39:32.127Z,93622.47
2022-09-10T13:43:00.672Z,93613.72
2022-09-10T13:46:12.052Z,93608.28
2022-09-10T13:49:23.797Z,93621.78
2022-09-10T13:52:37.579Z,93630.56
2022-09-10T13:55:49.763Z,93635.97
2022-09-10T13:59:02.625Z,93627.16
2022-09-10T14:02:06.818Z,93613.00
2022-09-10T14:05:34.538Z,93616.41
2022-09-10T14:09:02.838Z,93622.44
2022-09-10T14:12:08.949Z,93623.75
2022-09-10T14:15:19.614Z,93625.16
2022-09-10T14:18:32.448Z,93633.94
2022-09-10T14:21:36.107Z,93634.59
2022-09-10T14:24:39.022Z,93626.50
2022-09-10T14:27:44.771Z,93622.44
2022-09-10T14:30:50.267Z,93618.41
2022-09-10T14:33:56.844Z,93621.09
2022-09-10T14:37:01.903Z,93617.72
2022-09-10T14:40:29.158Z,93622.44
2022-09-10T14:43:39.410Z,93611.00
2022-09-10T14:47:08.877Z,93625.16
2022-09-10T14:50:35.226Z,93625.16
2022-09-10T14:53:40.566Z,93629.16
2022-09-10T14:56:46.996Z,93632.50
2022-09-10T14:59:55.277Z,93637.22
2022-09-10T15:03:01.205Z,93650.00
2022-09-10T15:06:05.003Z,93633.16
2022-09-10T15:09:08.698Z,93641.88
2022-09-10T15:12:23.874Z,93653.34
2022-09-10T15:15:29.117Z,93655.34
2022-09-10T15:18:33.080Z,93666.75
2022-09-10T15:21:36.791Z,93661.38
2022-09-10T15:24:59.021Z,93669.41
2022-09-10T15:28:04.930Z,93660.69
2022-09-10T15:31:09.730Z,93649.22
2022-09-10T15:34:13.578Z,93657.31
2022-09-10T15:37:17.662Z,93657.25
2022-09-10T15:40:21.397Z,93669.31
2022-09-10T15:43:27.562Z,93663.88
2022-09-10T15:46:31.186Z,93661.06
2022-09-10T15:49:36.195Z,93663.00
2022-09-10T15:52:39.996Z,93664.31
2022-09-10T15:55:44.117Z,93673.00
2022-09-10T15:58:57.789Z,93677.69
2022-09-10T16:02:01.277Z,93674.91
2022-09-10T16:05:06.520Z,93664.03
2022-09-10T16:08:09.888Z,93663.34
2022-09-10T16:11:12.856Z,93662.06
2022-09-10T16:14:17.582Z,93660.72
2022-09-10T16:17:21.593Z,93661.41
2022-09-10T16:20:25.847Z,93669.38
2022-09-10T16:23:29.795Z,93671.41
2022-09-10T16:26:36.847Z,93670.00
2022-09-10T16:29:43.991Z,93672.59
2022-09-10T16:32:48.315Z,93670.56
2022-09-10T16:35:51.929Z,93667.16
2022-09-10T16:38:58.036Z,93667.16
2022-09-10T16:42:01.306Z,93664.47
2022-09-10T16:45:05.642Z,93665.09
2022-09-10T16:48:10.062Z,93671.13
2022-09-10T16:51:20.536Z,93668.50
2022-09-10T16:54:27.134Z,93671.13
2022-09-10T16:57:31.269Z,93658.34
2022-09-10T17:00:35.289Z,93658.28
2022-09-10T17:03:42.628Z,93652.91
2022-09-10T17:06:46.973Z,93650.88
2022-09-10T17:09:51.153Z,93657.59
2022-09-10T17:12:54.418Z,93662.25
2022-09-10T17:16:22.203Z,93664.97
2022-09-10T17:19:26.895Z,93664.22
2022-09-10T17:22:30.514Z,93671.56
2022-09-10T17:25:34.344Z,93673.50
2022-09-10T17:28:39.110Z,93677.38
2022-09-10T17:31:44.449Z,93676.00
2022-09-10T17:34:48.379Z,93688.09
2022-09-10T17:37:52.615Z,93697.56
2022-09-10T17:41:06.318Z,93696.06
2022-09-10T17:44:11.814Z,93695.34
2022-09-10T17:47:15.529Z,93700.72
2022-09-10T17:50:19.227Z,93699.28
2022-09-10T17:53:22.916Z,93686.41
2022-09-10T17:56:27.901Z,93684.91
2022-09-10T17:59:31.782Z,93692.13
2022-09-10T18:02:35.185Z,93683.38
2022-09-10T18:05:43.319Z,93695.34
2022-09-10T18:08:47.293Z,93691.91
2022-09-10T18:11:50.606Z,93692.63
2022-09-10T18:14:54.590Z,93702.00
2022-09-10T18:18:01.925Z,93698.66
2022-09-10T18:21:20.514Z,93696.63
2022-09-10T18:24:24.696Z,93689.78
2022-09-10T18:27:28.779Z,93691.16
2022-09-10T18:30:31.833Z,93689.75
2022-09-10T18:33:40.384Z,93687.63
2022-09-10T18:36:44.526Z,93685.63
2022-09-10T18:39:48.814Z,93682.84
2022-09-10T18:42:52.906Z,93683.47
2022-09-10T18:45:56.829Z,93683.47
2022-09-10T18:49:01.405Z,93675.41
2022-09-10T18:52:07.090Z,93674.63
2022-09-10T18:55:11.490Z,93679.78
2022-09-10T18:58:15.105Z,93674.84
2022-09-10T19:01:20.046Z,93687.53
2022-09-10T19:04:26.943Z,93673.91
2022-09-10T19:07:30.709Z,93668.47
2022-09-10T19:10:34.710Z,93665.72
2022-09-10T19:13:38.375Z,93666.31
2022-09-10T19:16:42.312Z,93657.50
2022-09-10T19:19:45.553Z,93671.19
2022-09-10T19:22:49.597Z,93673.13
2022-09-10T19:25:54.797Z,93667.19
2022-09-10T19:29:00.337Z,93669.19
2022-09-10T19:32:04.315Z,93659.81
2022-09-10T19:35:08.665Z,93658.34
2022-09-10T19:38:36.145Z,93652.28
2022-09-10T19:41:42.573Z,93655.72
2022-09-10T19:44:46.038Z,93651.50
2022-09-10T19:47:49.640Z,93652.56
2022-09-10T19:50:53.458Z,93662.03
2022-09-10T19:53:57.888Z,93652.59
2022-09-10T19:57:01.075Z,93657.91
2022-09-10T20:00:05.234Z,93653.91
2022-09-10T20:03:15.346Z,93657.16
2022-09-10T20:06:21.575Z,93647.81
2022-09-10T20:09:24.906Z,93650.34
2022-09-10T20:12:29.306Z,93647.53
2022-09-10T20:15:33.320Z,93656.00
2022-09-10T20:18:37.782Z,93653.97
2022-09-10T20:21:42.697Z,93655.97
2022-09-10T20:24:46.691Z,93666.56
2022-09-10T20:27:50.567Z,93661.22
2022-09-10T20:30:54.217Z,93676.00
2022-09-10T20:34:00.452Z,93665.41
2022-09-10T20:37:04.510Z,93672.09
2022-09-10T20:40:08.250Z,93673.50
2022-09-10T20:43:13.282Z,93672.06
2022-09-10T20:46:18.336Z,93669.44
2022-09-10T20:49:22.500Z,93676.03
2022-09-10T20:52:26.128Z,93674.44
2022-09-10T20:55:30.218Z,93680.59
2022-09-10T20:58:37.396Z,93684.31
2022-09-10T21:01:42.549Z,93685.69
2022-09-10T21:04:45.907Z,93681.69
2022-09-10T21:07:51.002Z,93684.72
2022-09-10T21:10:54.468Z,93683.38
2022-09-10T21:14:00.940Z,93690.28
2022-09-10T21:17:04.937Z,93683.75
2022-09-10T21:20:09.341Z,93692.59
2022-09-10T21:23:12.929Z,93690.53
2022-09-10T21:26:18.628Z,93689.38
2022-09-10T21:29:22.792Z,93695.25
2022-09-10T21:32:26.596Z,93699.19
2022-09-10T21:35:29.756Z,93695.41
2022-09-10T21:38:37.143Z,93686.09
2022-09-10T21:41:45.528Z,93686.78
2022-09-10T21:44:49.661Z,93697.38
2022-09-10T21:47:53.212Z,93697.50
2022-09-10T21:51:01.332Z,93686.31
2022-09-10T21:54:05.471Z,93686.78
2022-09-10T21:57:12.443Z,93689.59
2022-09-10T22:00:16.693Z,93700.19
2022-09-10T22:03:20.847Z,93695.53
2022-09-10T22:06:27.447Z,93698.63
2022-09-10T22:09:32.036Z,93694.13
2022-09-10T22:12:35.616Z,93696.84
2022-09-10T22:15:40.958Z,93704.09
2022-09-10T22:18:44.575Z,93695.88
2022-09-10T22:21:48.473Z,93690.75
2022-09-10T22:24:53.623Z,93691.53
2022-09-10T22:27:59.344Z,93693.00
2022-09-10T22:31:17.640Z,93690.59
2022-09-10T22:34:22.122Z,93699.97
2022-09-10T22:37:25.297Z,93700.28
2022-09-10T22:40:28.760Z,93700.28
2022-09-10T22:43:32.788Z,93710.97
2022-09-10T22:46:37.890Z,93718.75
2022-09-10T22:49:42.230Z,93721.97
2022-09-10T22:52:46.418Z,93714.13
2022-09-10T22:55:51.872Z,93722.13
2022-09-10T22:59:00.736Z,93719.09
2022-09-10T23:02:05.749Z,93715.78
2022-09-10T23:05:09.449Z,93713.28
2022-09-10T23:08:13.734Z,93711.97
2022-09-10T23:11:20.054Z,93710.09
2022-09-10T23:14:26.304Z,93717.69
2022-09-10T23:17:29.976Z,93720.72
2022-09-10T23:20:33.907Z,93706.22
2022-09-10T23:23:37.671Z,93714.38
2022-09-10T23:26:42.401Z,93705.00
2022-09-10T23:29:46.262Z,93710.81
2022-09-10T23:32:50.416Z,93707.97
2022-09-10T23:35:53.736Z,93713.09
2022-09-10T23:38:59.494Z,93701.13
2022-09-10T23:42:03.591Z,93708.56
2022-09-10T23:45:08.302Z,93702.00
2022-09-10T23:48:11.692Z,93707.69
2022-09-10T23:51:18.090Z,93707.81
2022-09-10T23:54:22.130Z,93696.69
2022-09-10T23:57:26.467Z,93694.47
